sensor_id;sensor_type;location;lat;lon;timestamp;temperature;humidity
18225;DHT22;9237;48.590;8.854;2023-02-24T00:01:52;6.60;99.90
18225;DHT22;9237;48.590;8.854;2023-02-24T00:04:25;6.60;99.90
18225;DHT22;9237;48.590;8.854;2023-02-24T00:06:53;6.60;99.90
18225;DHT22;9237;48.590;8.854;2023-02-24T00:09:23;6.50;99.90
18225;DHT22;9237;48.590;8.854;2023-02-24T00:11:53;6.50;99.90
18225;DHT22;9237;48.590;8.854;2023-02-24T00:14:22;6.50;99.90
18225;DHT22;9237;48.590;8.854;2023-02-24T00:16:51;6.50;99.90
18225;DHT22;9237;48.590;8.854;2023-02-24T00:19:20;6.50;99.90
18225;DHT22;9237;48.590;8.854;2023-02-24T00:21:48;6.50;99.90
18225;DHT22;9237;48.590;8.854;2023-02-24T00:24:16;6.50;99.90
18225;DHT22;9237;48.590;8.854;2023-02-24T00:26:44;6.40;99.90
18225;DHT22;9237;48.590;8.854;2023-02-24T00:29:13;6.40;99.90
18225;DHT22;9237;48.590;8.854;2023-02-24T00:31:41;6.40;99.90
18225;DHT22;9237;48.590;8.854;2023-02-24T00:34:08;6.40;99.90
18225;DHT22;9237;48.590;8.854;2023-02-24T00:36:37;6.40;99.90
18225;DHT22;9237;48.590;8.854;2023-02-24T00:39:05;6.40;99.90
18225;DHT22;9237;48.590;8.854;2023-02-24T00:41:36;6.30;99.90
18225;DHT22;9237;48.590;8.854;2023-02-24T00:44:08;6.30;99.90
18225;DHT22;9237;48.590;8.854;2023-02-24T00:46:38;6.30;99.90
18225;DHT22;9237;48.590;8.854;2023-02-24T00:49:07;6.30;99.90
18225;DHT22;9237;48.590;8.854;2023-02-24T00:51:37;6.40;99.90
18225;DHT22;9237;48.590;8.854;2023-02-24T00:54:05;6.40;99.90
18225;DHT22;9237;48.590;8.854;2023-02-24T00:56:33;6.40;99.90
18225;DHT22;9237;48.590;8.854;2023-02-24T00:59:00;6.40;99.90
18225;DHT22;9237;48.590;8.854;2023-02-24T01:01:30;6.30;99.90
18225;DHT22;9237;48.590;8.854;2023-02-24T01:03:58;6.30;99.90
18225;DHT22;9237;48.590;8.854;2023-02-24T01:06:31;6.70;99.90
18225;DHT22;9237;48.590;8.854;2023-02-24T01:08:59;6.40;99.90
18225;DHT22;9237;48.590;8.854;2023-02-24T01:11:31;6.40;99.90
18225;DHT22;9237;48.590;8.854;2023-02-24T01:14:17;6.30;99.90
18225;DHT22;9237;48.590;8.854;2023-02-24T01:16:45;6.30;99.90
18225;DHT22;9237;48.590;8.854;2023-02-24T01:19:15;6.40;99.90
18225;DHT22;9237;48.590;8.854;2023-02-24T01:21:42;6.40;99.90
18225;DHT22;9237;48.590;8.854;2023-02-24T01:24:10;6.40;99.90
18225;DHT22;9237;48.590;8.854;2023-02-24T01:26:37;6.40;99.90
18225;DHT22;9237;48.590;8.854;2023-02-24T01:29:04;6.40;99.90
18225;DHT22;9237;48.590;8.854;2023-02-24T01:31:34;6.40;99.90
18225;DHT22;9237;48.590;8.854;2023-02-24T01:34:02;6.40;99.90
18225;DHT22;9237;48.590;8.854;2023-02-24T01:36:31;6.40;99.90
18225;DHT22;9237;48.590;8.854;2023-02-24T01:38:59;6.40;99.90
18225;DHT22;9237;48.590;8.854;2023-02-24T01:41:27;6.40;99.90
18225;DHT22;9237;48.590;8.854;2023-02-24T01:43:58;6.50;99.90
18225;DHT22;9237;48.590;8.854;2023-02-24T01:46:27;6.40;99.90
18225;DHT22;9237;48.590;8.854;2023-02-24T01:48:57;6.50;99.90
18225;DHT22;9237;48.590;8.854;2023-02-24T01:51:30;6.50;99.90
18225;DHT22;9237;48.590;8.854;2023-02-24T01:53:58;6.50;99.90
18225;DHT22;9237;48.590;8.854;2023-02-24T01:56:25;6.60;99.90
18225;DHT22;9237;48.590;8.854;2023-02-24T01:58:54;6.60;99.90
18225;DHT22;9237;48.590;8.854;2023-02-24T02:01:22;6.60;99.90
18225;DHT22;9237;48.590;8.854;2023-02-24T02:03:49;6.60;99.90
18225;DHT22;9237;48.590;8.854;2023-02-24T02:06:16;6.60;99.90
18225;DHT22;9237;48.590;8.854;2023-02-24T02:08:44;6.60;99.90
18225;DHT22;9237;48.590;8.854;2023-02-24T02:11:14;6.70;99.90
18225;DHT22;9237;48.590;8.854;2023-02-24T02:13:45;6.70;99.90
18225;DHT22;9237;48.590;8.854;2023-02-24T02:19:36;6.70;99.90
18225;DHT22;9237;48.590;8.854;2023-02-24T02:22:40;6.70;99.90
18225;DHT22;9237;48.590;8.854;2023-02-24T02:25:17;6.70;99.90
18225;DHT22;9237;48.590;8.854;2023-02-24T02:28:12;6.70;99.90
18225;DHT22;9237;48.590;8.854;2023-02-24T02:30:54;6.70;99.90
18225;DHT22;9237;48.590;8.854;2023-02-24T02:33:49;6.70;99.90
18225;DHT22;9237;48.590;8.854;2023-02-24T02:36:27;6.70;99.90
18225;DHT22;9237;48.590;8.854;2023-02-24T02:39:02;6.70;99.90
18225;DHT22;9237;48.590;8.854;2023-02-24T02:41:37;6.70;99.90
18225;DHT22;9237;48.590;8.854;2023-02-24T02:44:09;6.70;99.90
18225;DHT22;9237;48.590;8.854;2023-02-24T02:46:41;6.70;99.90
18225;DHT22;9237;48.590;8.854;2023-02-24T02:49:16;6.70;99.90
18225;DHT22;9237;48.590;8.854;2023-02-24T02:51:48;6.70;99.90
18225;DHT22;9237;48.590;8.854;2023-02-24T02:54:21;6.70;99.90
18225;DHT22;9237;48.590;8.854;2023-02-24T02:56:56;6.70;99.90
18225;DHT22;9237;48.590;8.854;2023-02-24T02:59:28;6.60;99.90
18225;DHT22;9237;48.590;8.854;2023-02-24T03:01:57;6.60;99.90
18225;DHT22;9237;48.590;8.854;2023-02-24T03:04:39;6.60;99.90
18225;DHT22;9237;48.590;8.854;2023-02-24T03:07:09;6.80;99.90
18225;DHT22;9237;48.590;8.854;2023-02-24T03:09:41;6.70;99.90
18225;DHT22;9237;48.590;8.854;2023-02-24T03:12:14;6.60;99.90
18225;DHT22;9237;48.590;8.854;2023-02-24T03:14:46;6.70;99.90
18225;DHT22;9237;48.590;8.854;2023-02-24T03:17:18;6.70;99.90
18225;DHT22;9237;48.590;8.854;2023-02-24T03:19:49;6.70;99.90
18225;DHT22;9237;48.590;8.854;2023-02-24T03:22:26;6.90;99.90
18225;DHT22;9237;48.590;8.854;2023-02-24T03:24:55;6.70;99.90
18225;DHT22;9237;48.590;8.854;2023-02-24T03:27:27;6.70;99.90
18225;DHT22;9237;48.590;8.854;2023-02-24T03:29:57;6.60;99.90
18225;DHT22;9237;48.590;8.854;2023-02-24T03:32:28;6.70;99.90
18225;DHT22;9237;48.590;8.854;2023-02-24T03:35:01;6.70;99.90
18225;DHT22;9237;48.590;8.854;2023-02-24T03:37:32;6.70;99.90
18225;DHT22;9237;48.590;8.854;2023-02-24T03:40:04;6.70;99.90
18225;DHT22;9237;48.590;8.854;2023-02-24T03:42:36;6.70;99.90
18225;DHT22;9237;48.590;8.854;2023-02-24T03:45:05;6.70;99.90
18225;DHT22;9237;48.590;8.854;2023-02-24T03:47:35;6.70;99.90
18225;DHT22;9237;48.590;8.854;2023-02-24T03:50:09;6.70;99.90
18225;DHT22;9237;48.590;8.854;2023-02-24T03:52:40;6.80;99.90
18225;DHT22;9237;48.590;8.854;2023-02-24T03:55:20;6.80;99.90
18225;DHT22;9237;48.590;8.854;2023-02-24T03:57:59;6.80;99.90
18225;DHT22;9237;48.590;8.854;2023-02-24T04:00:34;6.80;99.90
18225;DHT22;9237;48.590;8.854;2023-02-24T04:03:17;6.80;99.90
18225;DHT22;9237;48.590;8.854;2023-02-24T04:05:55;6.80;99.90
18225;DHT22;9237;48.590;8.854;2023-02-24T04:08:26;6.80;99.90
18225;DHT22;9237;48.590;8.854;2023-02-24T04:10:59;6.80;99.90
18225;DHT22;9237;48.590;8.854;2023-02-24T04:13:34;6.80;99.90
18225;DHT22;9237;48.590;8.854;2023-02-24T04:16:09;6.70;99.90
18225;DHT22;9237;48.590;8.854;2023-02-24T04:18:45;6.70;99.90
18225;DHT22;9237;48.590;8.854;2023-02-24T04:21:16;6.70;99.90
18225;DHT22;9237;48.590;8.854;2023-02-24T04:23:45;6.80;99.90
18225;DHT22;9237;48.590;8.854;2023-02-24T04:26:15;6.80;99.90
18225;DHT22;9237;48.590;8.854;2023-02-24T04:28:44;6.80;99.90
18225;DHT22;9237;48.590;8.854;2023-02-24T04:31:14;6.70;99.90
18225;DHT22;9237;48.590;8.854;2023-02-24T04:33:43;6.80;99.90
18225;DHT22;9237;48.590;8.854;2023-02-24T04:36:16;6.70;99.90
18225;DHT22;9237;48.590;8.854;2023-02-24T04:38:43;6.70;99.90
18225;DHT22;9237;48.590;8.854;2023-02-24T04:41:11;6.70;99.90
18225;DHT22;9237;48.590;8.854;2023-02-24T04:43:42;6.70;99.90
18225;DHT22;9237;48.590;8.854;2023-02-24T04:46:09;6.70;99.90
18225;DHT22;9237;48.590;8.854;2023-02-24T04:48:37;6.80;99.90
18225;DHT22;9237;48.590;8.854;2023-02-24T04:51:04;6.70;99.90
18225;DHT22;9237;48.590;8.854;2023-02-24T04:53:33;6.70;99.90
18225;DHT22;9237;48.590;8.854;2023-02-24T04:56:01;6.70;99.90
18225;DHT22;9237;48.590;8.854;2023-02-24T04:58:33;6.70;99.90
18225;DHT22;9237;48.590;8.854;2023-02-24T05:01:00;6.70;99.90
18225;DHT22;9237;48.590;8.854;2023-02-24T05:03:33;6.70;99.90
18225;DHT22;9237;48.590;8.854;2023-02-24T05:06:01;6.70;99.90
18225;DHT22;9237;48.590;8.854;2023-02-24T05:08:29;6.60;99.90
18225;DHT22;9237;48.590;8.854;2023-02-24T05:10:57;6.70;99.90
18225;DHT22;9237;48.590;8.854;2023-02-24T05:13:29;6.70;99.90
18225;DHT22;9237;48.590;8.854;2023-02-24T05:15:58;6.70;99.90
18225;DHT22;9237;48.590;8.854;2023-02-24T05:18:25;6.70;99.90
18225;DHT22;9237;48.590;8.854;2023-02-24T05:20:56;6.80;99.90
18225;DHT22;9237;48.590;8.854;2023-02-24T05:23:42;6.80;99.90
18225;DHT22;9237;48.590;8.854;2023-02-24T05:26:13;6.80;99.90
18225;DHT22;9237;48.590;8.854;2023-02-24T05:28:42;6.80;99.90
18225;DHT22;9237;48.590;8.854;2023-02-24T05:31:13;6.80;99.90
18225;DHT22;9237;48.590;8.854;2023-02-24T05:33:41;6.80;99.90
18225;DHT22;9237;48.590;8.854;2023-02-24T05:36:09;6.80;99.90
18225;DHT22;9237;48.590;8.854;2023-02-24T05:38:37;6.80;99.90
18225;DHT22;9237;48.590;8.854;2023-02-24T05:41:04;6.80;99.90
18225;DHT22;9237;48.590;8.854;2023-02-24T05:43:34;6.80;99.90
18225;DHT22;9237;48.590;8.854;2023-02-24T05:46:03;6.80;99.90
18225;DHT22;9237;48.590;8.854;2023-02-24T05:48:31;6.80;99.90
18225;DHT22;9237;48.590;8.854;2023-02-24T05:51:00;6.80;99.90
18225;DHT22;9237;48.590;8.854;2023-02-24T05:53:27;6.80;99.90
18225;DHT22;9237;48.590;8.854;2023-02-24T05:55:54;6.80;99.90
18225;DHT22;9237;48.590;8.854;2023-02-24T05:58:21;6.80;99.90
18225;DHT22;9237;48.590;8.854;2023-02-24T06:00:50;6.80;99.90
18225;DHT22;9237;48.590;8.854;2023-02-24T06:03:16;6.80;99.90
18225;DHT22;9237;48.590;8.854;2023-02-24T06:05:55;6.80;99.90
18225;DHT22;9237;48.590;8.854;2023-02-24T06:08:23;6.70;99.90
18225;DHT22;9237;48.590;8.854;2023-02-24T06:10:51;6.80;99.90
18225;DHT22;9237;48.590;8.854;2023-02-24T06:13:18;6.80;99.90
18225;DHT22;9237;48.590;8.854;2023-02-24T06:15:44;6.80;99.90
18225;DHT22;9237;48.590;8.854;2023-02-24T06:18:16;6.90;99.90
18225;DHT22;9237;48.590;8.854;2023-02-24T06:20:43;6.90;99.90
18225;DHT22;9237;48.590;8.854;2023-02-24T06:23:15;7.00;99.90
18225;DHT22;9237;48.590;8.854;2023-02-24T06:25:42;7.00;99.90
18225;DHT22;9237;48.590;8.854;2023-02-24T06:28:10;6.90;99.90
18225;DHT22;9237;48.590;8.854;2023-02-24T06:30:36;6.90;99.90
18225;DHT22;9237;48.590;8.854;2023-02-24T06:33:03;6.90;99.90
18225;DHT22;9237;48.590;8.854;2023-02-24T06:35:32;6.90;99.90
18225;DHT22;9237;48.590;8.854;2023-02-24T06:37:59;6.90;99.90
18225;DHT22;9237;48.590;8.854;2023-02-24T06:40:25;6.90;99.90
18225;DHT22;9237;48.590;8.854;2023-02-24T06:42:52;6.90;99.90
18225;DHT22;9237;48.590;8.854;2023-02-24T06:45:20;6.90;99.90
18225;DHT22;9237;48.590;8.854;2023-02-24T06:47:47;6.90;99.90
18225;DHT22;9237;48.590;8.854;2023-02-24T06:50:14;6.90;99.90
18225;DHT22;9237;48.590;8.854;2023-02-24T06:52:45;6.90;99.90
18225;DHT22;9237;48.590;8.854;2023-02-24T06:55:12;6.90;99.90
18225;DHT22;9237;48.590;8.854;2023-02-24T06:57:52;6.90;99.90
18225;DHT22;9237;48.590;8.854;2023-02-24T07:00:23;6.90;99.90
18225;DHT22;9237;48.590;8.854;2023-02-24T07:03:01;6.90;99.90
18225;DHT22;9237;48.590;8.854;2023-02-24T07:05:42;6.90;99.90
18225;DHT22;9237;48.590;8.854;2023-02-24T07:08:16;6.90;99.90
18225;DHT22;9237;48.590;8.854;2023-02-24T07:10:43;7.00;99.90
18225;DHT22;9237;48.590;8.854;2023-02-24T07:13:10;6.90;99.90
18225;DHT22;9237;48.590;8.854;2023-02-24T07:15:38;7.00;99.90
18225;DHT22;9237;48.590;8.854;2023-02-24T07:18:04;7.00;99.90
18225;DHT22;9237;48.590;8.854;2023-02-24T07:20:39;7.10;99.90
18225;DHT22;9237;48.590;8.854;2023-02-24T07:23:08;7.10;99.90
18225;DHT22;9237;48.590;8.854;2023-02-24T07:25:36;7.10;99.90
18225;DHT22;9237;48.590;8.854;2023-02-24T07:28:05;7.40;99.90
18225;DHT22;9237;48.590;8.854;2023-02-24T07:30:32;7.10;99.90
18225;DHT22;9237;48.590;8.854;2023-02-24T07:33:01;7.00;99.90
18225;DHT22;9237;48.590;8.854;2023-02-24T07:35:29;7.10;99.90
18225;DHT22;9237;48.590;8.854;2023-02-24T07:37:56;7.30;99.90
18225;DHT22;9237;48.590;8.854;2023-02-24T07:40:26;7.10;99.90
18225;DHT22;9237;48.590;8.854;2023-02-24T07:42:54;7.00;99.90
18225;DHT22;9237;48.590;8.854;2023-02-24T07:45:21;7.10;99.90
18225;DHT22;9237;48.590;8.854;2023-02-24T07:47:49;7.10;99.90
18225;DHT22;9237;48.590;8.854;2023-02-24T07:50:16;7.20;99.90
18225;DHT22;9237;48.590;8.854;2023-02-24T07:52:43;7.30;99.90
18225;DHT22;9237;48.590;8.854;2023-02-24T07:55:10;7.30;99.90
18225;DHT22;9237;48.590;8.854;2023-02-24T07:57:36;7.30;99.90
18225;DHT22;9237;48.590;8.854;2023-02-24T08:00:06;7.30;99.90
18225;DHT22;9237;48.590;8.854;2023-02-24T08:02:44;7.30;99.90
18225;DHT22;9237;48.590;8.854;2023-02-24T08:05:11;7.30;99.90
18225;DHT22;9237;48.590;8.854;2023-02-24T08:07:38;7.40;99.90
18225;DHT22;9237;48.590;8.854;2023-02-24T08:10:06;7.50;99.90
18225;DHT22;9237;48.590;8.854;2023-02-24T08:12:49;7.40;99.90
18225;DHT22;9237;48.590;8.854;2023-02-24T08:15:21;7.40;99.90
18225;DHT22;9237;48.590;8.854;2023-02-24T08:17:52;7.40;99.90
18225;DHT22;9237;48.590;8.854;2023-02-24T08:20:19;7.50;99.90
18225;DHT22;9237;48.590;8.854;2023-02-24T08:22:54;7.50;99.90
18225;DHT22;9237;48.590;8.854;2023-02-24T08:25:24;7.50;99.90
18225;DHT22;9237;48.590;8.854;2023-02-24T08:28:00;7.60;99.90
18225;DHT22;9237;48.590;8.854;2023-02-24T08:30:32;7.60;99.90
18225;DHT22;9237;48.590;8.854;2023-02-24T08:33:03;7.90;99.90
18225;DHT22;9237;48.590;8.854;2023-02-24T08:35:33;7.90;99.90
18225;DHT22;9237;48.590;8.854;2023-02-24T08:38:03;7.90;99.90
18225;DHT22;9237;48.590;8.854;2023-02-24T08:40:31;8.00;99.90
18225;DHT22;9237;48.590;8.854;2023-02-24T08:43:18;8.00;99.90
18225;DHT22;9237;48.590;8.854;2023-02-24T08:45:58;8.10;99.90
18225;DHT22;9237;48.590;8.854;2023-02-24T08:48:30;8.20;99.90
18225;DHT22;9237;48.590;8.854;2023-02-24T08:51:06;8.20;99.90
18225;DHT22;9237;48.590;8.854;2023-02-24T08:53:34;8.30;99.90
18225;DHT22;9237;48.590;8.854;2023-02-24T08:56:06;8.40;99.90
18225;DHT22;9237;48.590;8.854;2023-02-24T08:58:36;8.30;99.90
18225;DHT22;9237;48.590;8.854;2023-02-24T09:01:12;8.80;99.90
18225;DHT22;9237;48.590;8.854;2023-02-24T09:03:49;8.30;99.90
18225;DHT22;9237;48.590;8.854;2023-02-24T09:06:18;8.20;99.90
18225;DHT22;9237;48.590;8.854;2023-02-24T09:08:50;8.30;99.90
18225;DHT22;9237;48.590;8.854;2023-02-24T09:11:37;8.30;99.90
18225;DHT22;9237;48.590;8.854;2023-02-24T09:14:08;8.30;99.90
18225;DHT22;9237;48.590;8.854;2023-02-24T09:16:45;8.30;99.90
18225;DHT22;9237;48.590;8.854;2023-02-24T09:19:33;8.60;99.90
18225;DHT22;9237;48.590;8.854;2023-02-24T09:22:27;9.00;99.90
18225;DHT22;9237;48.590;8.854;2023-02-24T09:24:58;9.30;99.90
18225;DHT22;9237;48.590;8.854;2023-02-24T09:27:43;9.90;99.90
18225;DHT22;9237;48.590;8.854;2023-02-24T09:30:13;10.20;99.90
18225;DHT22;9237;48.590;8.854;2023-02-24T09:33:05;10.30;99.90
18225;DHT22;9237;48.590;8.854;2023-02-24T09:35:33;10.60;99.90
18225;DHT22;9237;48.590;8.854;2023-02-24T09:38:02;10.60;99.90
18225;DHT22;9237;48.590;8.854;2023-02-24T09:40:31;10.80;99.90
18225;DHT22;9237;48.590;8.854;2023-02-24T09:43:08;10.80;99.90
18225;DHT22;9237;48.590;8.854;2023-02-24T09:45:45;10.80;99.90
18225;DHT22;9237;48.590;8.854;2023-02-24T09:48:29;10.80;99.90
18225;DHT22;9237;48.590;8.854;2023-02-24T09:50:57;10.70;99.90
18225;DHT22;9237;48.590;8.854;2023-02-24T09:53:29;10.70;99.90
18225;DHT22;9237;48.590;8.854;2023-02-24T09:56:08;10.50;99.90
18225;DHT22;9237;48.590;8.854;2023-02-24T09:58:42;10.30;99.90
18225;DHT22;9237;48.590;8.854;2023-02-24T10:01:32;10.40;99.90
18225;DHT22;9237;48.590;8.854;2023-02-24T10:04:10;10.40;99.90
18225;DHT22;9237;48.590;8.854;2023-02-24T10:06:44;10.50;99.90
18225;DHT22;9237;48.590;8.854;2023-02-24T10:09:17;10.70;99.90
18225;DHT22;9237;48.590;8.854;2023-02-24T10:11:50;10.60;99.90
18225;DHT22;9237;48.590;8.854;2023-02-24T10:14:28;10.70;99.90
18225;DHT22;9237;48.590;8.854;2023-02-24T10:16:56;10.80;99.90
18225;DHT22;9237;48.590;8.854;2023-02-24T10:19:54;10.80;99.90
18225;DHT22;9237;48.590;8.854;2023-02-24T10:22:29;10.90;99.90
18225;DHT22;9237;48.590;8.854;2023-02-24T10:25:17;10.90;99.90
18225;DHT22;9237;48.590;8.854;2023-02-24T10:27:54;10.80;99.90
18225;DHT22;9237;48.590;8.854;2023-02-24T10:30:35;10.70;99.90
18225;DHT22;9237;48.590;8.854;2023-02-24T10:33:22;10.80;99.90
18225;DHT22;9237;48.590;8.854;2023-02-24T10:36:06;10.80;99.90
18225;DHT22;9237;48.590;8.854;2023-02-24T10:38:34;10.80;99.90
18225;DHT22;9237;48.590;8.854;2023-02-24T10:41:01;10.80;99.90
18225;DHT22;9237;48.590;8.854;2023-02-24T10:43:31;10.80;99.90
18225;DHT22;9237;48.590;8.854;2023-02-24T10:46:20;10.80;99.90
18225;DHT22;9237;48.590;8.854;2023-02-24T10:48:52;10.80;99.90
18225;DHT22;9237;48.590;8.854;2023-02-24T10:51:29;10.80;99.90
18225;DHT22;9237;48.590;8.854;2023-02-24T10:54:11;10.70;99.90
18225;DHT22;9237;48.590;8.854;2023-02-24T10:56:54;10.50;99.90
18225;DHT22;9237;48.590;8.854;2023-02-24T10:59:43;10.40;99.90
18225;DHT22;9237;48.590;8.854;2023-02-24T11:02:25;10.20;99.90
18225;DHT22;9237;48.590;8.854;2023-02-24T11:05:06;9.90;99.90
18225;DHT22;9237;48.590;8.854;2023-02-24T11:08:05;10.00;99.90
18225;DHT22;9237;48.590;8.854;2023-02-24T11:10:39;9.90;99.90
18225;DHT22;9237;48.590;8.854;2023-02-24T11:13:19;9.90;99.90
18225;DHT22;9237;48.590;8.854;2023-02-24T11:16:07;10.10;99.90
18225;DHT22;9237;48.590;8.854;2023-02-24T11:18:53;9.90;99.90
18225;DHT22;9237;48.590;8.854;2023-02-24T11:21:23;9.90;99.90
18225;DHT22;9237;48.590;8.854;2023-02-24T11:23:54;9.90;99.90
18225;DHT22;9237;48.590;8.854;2023-02-24T11:26:24;9.70;99.90
18225;DHT22;9237;48.590;8.854;2023-02-24T11:32:01;9.60;99.90
18225;DHT22;9237;48.590;8.854;2023-02-24T11:34:40;9.50;99.90
18225;DHT22;9237;48.590;8.854;2023-02-24T11:37:13;9.70;99.90
18225;DHT22;9237;48.590;8.854;2023-02-24T11:39:51;9.90;99.90
18225;DHT22;9237;48.590;8.854;2023-02-24T11:42:23;10.10;99.90
18225;DHT22;9237;48.590;8.854;2023-02-24T11:44:55;10.20;99.90
18225;DHT22;9237;48.590;8.854;2023-02-24T11:47:28;10.60;99.90
18225;DHT22;9237;48.590;8.854;2023-02-24T11:50:04;11.00;99.90
18225;DHT22;9237;48.590;8.854;2023-02-24T11:52:36;10.90;99.90
18225;DHT22;9237;48.590;8.854;2023-02-24T11:55:26;10.90;99.90
18225;DHT22;9237;48.590;8.854;2023-02-24T11:57:59;10.90;99.90
18225;DHT22;9237;48.590;8.854;2023-02-24T12:00:32;11.00;99.90
18225;DHT22;9237;48.590;8.854;2023-02-24T12:03:07;11.40;99.90
18225;DHT22;9237;48.590;8.854;2023-02-24T12:05:39;11.70;99.90
18225;DHT22;9237;48.590;8.854;2023-02-24T12:08:12;11.70;99.90
18225;DHT22;9237;48.590;8.854;2023-02-24T12:10:46;11.80;99.90
18225;DHT22;9237;48.590;8.854;2023-02-24T12:13:19;11.80;99.90
18225;DHT22;9237;48.590;8.854;2023-02-24T12:15:55;12.00;99.90
18225;DHT22;9237;48.590;8.854;2023-02-24T12:18:25;12.00;99.90
18225;DHT22;9237;48.590;8.854;2023-02-24T12:20:59;11.90;99.90
18225;DHT22;9237;48.590;8.854;2023-02-24T12:23:32;11.40;99.90
18225;DHT22;9237;48.590;8.854;2023-02-24T12:26:10;10.80;99.90
18225;DHT22;9237;48.590;8.854;2023-02-24T12:28:57;10.90;99.90
18225;DHT22;9237;48.590;8.854;2023-02-24T12:31:33;11.10;99.90
18225;DHT22;9237;48.590;8.854;2023-02-24T12:34:08;11.30;99.90
18225;DHT22;9237;48.590;8.854;2023-02-24T12:37:01;11.40;99.90
18225;DHT22;9237;48.590;8.854;2023-02-24T12:39:41;11.50;99.90
18225;DHT22;9237;48.590;8.854;2023-02-24T12:42:19;11.60;99.90
18225;DHT22;9237;48.590;8.854;2023-02-24T12:44:51;11.80;99.90
18225;DHT22;9237;48.590;8.854;2023-02-24T12:47:24;11.90;99.90
18225;DHT22;9237;48.590;8.854;2023-02-24T12:50:13;12.00;99.90
18225;DHT22;9237;48.590;8.854;2023-02-24T12:52:51;11.90;99.90
18225;DHT22;9237;48.590;8.854;2023-02-24T12:55:24;11.70;99.90
18225;DHT22;9237;48.590;8.854;2023-02-24T12:57:59;11.80;99.90
18225;DHT22;9237;48.590;8.854;2023-02-24T13:00:34;11.80;99.90
18225;DHT22;9237;48.590;8.854;2023-02-24T13:03:09;12.00;99.90
18225;DHT22;9237;48.590;8.854;2023-02-24T13:05:47;12.00;99.90
18225;DHT22;9237;48.590;8.854;2023-02-24T13:08:23;11.90;99.90
18225;DHT22;9237;48.590;8.854;2023-02-24T13:11:02;12.00;99.90
18225;DHT22;9237;48.590;8.854;2023-02-24T13:13:41;12.10;99.90
18225;DHT22;9237;48.590;8.854;2023-02-24T13:16:10;12.20;99.90
18225;DHT22;9237;48.590;8.854;2023-02-24T13:18:37;12.10;99.90
18225;DHT22;9237;48.590;8.854;2023-02-24T13:21:07;12.20;99.90
18225;DHT22;9237;48.590;8.854;2023-02-24T13:23:36;12.30;99.90
18225;DHT22;9237;48.590;8.854;2023-02-24T13:26:06;12.20;99.90
18225;DHT22;9237;48.590;8.854;2023-02-24T13:28:36;12.10;99.90
18225;DHT22;9237;48.590;8.854;2023-02-24T13:31:05;12.20;99.90
18225;DHT22;9237;48.590;8.854;2023-02-24T13:33:34;12.20;99.90
18225;DHT22;9237;48.590;8.854;2023-02-24T13:36:08;12.10;99.90
18225;DHT22;9237;48.590;8.854;2023-02-24T13:38:36;12.00;99.90
18225;DHT22;9237;48.590;8.854;2023-02-24T13:41:15;11.90;99.90
18225;DHT22;9237;48.590;8.854;2023-02-24T13:43:54;11.90;99.90
18225;DHT22;9237;48.590;8.854;2023-02-24T13:46:22;11.90;99.90
18225;DHT22;9237;48.590;8.854;2023-02-24T13:49:24;11.80;99.90
18225;DHT22;9237;48.590;8.854;2023-02-24T13:51:56;11.80;99.90
18225;DHT22;9237;48.590;8.854;2023-02-24T13:54:45;11.60;99.90
18225;DHT22;9237;48.590;8.854;2023-02-24T13:57:40;11.40;99.90
18225;DHT22;9237;48.590;8.854;2023-02-24T14:00:19;11.20;99.90
18225;DHT22;9237;48.590;8.854;2023-02-24T14:02:49;11.00;99.90
18225;DHT22;9237;48.590;8.854;2023-02-24T14:05:21;10.90;99.90
18225;DHT22;9237;48.590;8.854;2023-02-24T14:07:50;10.90;99.90
18225;DHT22;9237;48.590;8.854;2023-02-24T14:10:19;10.90;99.90
18225;DHT22;9237;48.590;8.854;2023-02-24T14:12:49;10.90;99.90
18225;DHT22;9237;48.590;8.854;2023-02-24T14:15:20;11.00;99.90
18225;DHT22;9237;48.590;8.854;2023-02-24T14:17:54;11.00;99.90
18225;DHT22;9237;48.590;8.854;2023-02-24T14:20:23;10.90;99.90
18225;DHT22;9237;48.590;8.854;2023-02-24T14:22:51;10.90;99.90
18225;DHT22;9237;48.590;8.854;2023-02-24T14:25:19;10.90;99.90
18225;DHT22;9237;48.590;8.854;2023-02-24T14:27:48;10.90;99.90
18225;DHT22;9237;48.590;8.854;2023-02-24T14:30:26;10.90;99.90
18225;DHT22;9237;48.590;8.854;2023-02-24T14:32:55;10.80;99.90
18225;DHT22;9237;48.590;8.854;2023-02-24T14:35:27;10.90;99.90
18225;DHT22;9237;48.590;8.854;2023-02-24T14:37:55;10.90;99.90
18225;DHT22;9237;48.590;8.854;2023-02-24T14:40:23;10.80;99.90
18225;DHT22;9237;48.590;8.854;2023-02-24T14:42:51;10.80;99.90
18225;DHT22;9237;48.590;8.854;2023-02-24T14:45:20;10.70;99.90
18225;DHT22;9237;48.590;8.854;2023-02-24T14:47:51;10.70;99.90
18225;DHT22;9237;48.590;8.854;2023-02-24T14:50:21;10.60;99.90
18225;DHT22;9237;48.590;8.854;2023-02-24T14:52:51;10.50;99.90
18225;DHT22;9237;48.590;8.854;2023-02-24T14:55:21;10.50;99.90
18225;DHT22;9237;48.590;8.854;2023-02-24T14:57:52;10.40;99.90
18225;DHT22;9237;48.590;8.854;2023-02-24T15:00:23;10.30;99.90
18225;DHT22;9237;48.590;8.854;2023-02-24T15:02:56;10.30;99.90
18225;DHT22;9237;48.590;8.854;2023-02-24T15:05:27;10.20;99.90
18225;DHT22;9237;48.590;8.854;2023-02-24T15:07:54;10.20;99.90
18225;DHT22;9237;48.590;8.854;2023-02-24T15:10:24;10.10;99.90
18225;DHT22;9237;48.590;8.854;2023-02-24T15:12:55;10.10;99.90
18225;DHT22;9237;48.590;8.854;2023-02-24T15:15:24;10.10;99.90
18225;DHT22;9237;48.590;8.854;2023-02-24T15:17:55;10.00;99.90
18225;DHT22;9237;48.590;8.854;2023-02-24T15:20:29;10.00;99.90
18225;DHT22;9237;48.590;8.854;2023-02-24T15:22:56;10.10;99.90
18225;DHT22;9237;48.590;8.854;2023-02-24T15:25:25;10.00;99.90
18225;DHT22;9237;48.590;8.854;2023-02-24T15:27:54;10.00;99.90
18225;DHT22;9237;48.590;8.854;2023-02-24T15:30:27;10.00;99.90
18225;DHT22;9237;48.590;8.854;2023-02-24T15:33:01;9.90;99.90
18225;DHT22;9237;48.590;8.854;2023-02-24T15:35:29;9.90;99.90
18225;DHT22;9237;48.590;8.854;2023-02-24T15:37:58;10.00;99.90
18225;DHT22;9237;48.590;8.854;2023-02-24T15:40:26;9.80;99.90
18225;DHT22;9237;48.590;8.854;2023-02-24T15:42:56;9.70;99.90
18225;DHT22;9237;48.590;8.854;2023-02-24T15:45:28;9.60;99.90
18225;DHT22;9237;48.590;8.854;2023-02-24T15:47:57;9.70;99.90
18225;DHT22;9237;48.590;8.854;2023-02-24T15:50:27;9.50;99.90
18225;DHT22;9237;48.590;8.854;2023-02-24T15:52:56;9.50;99.90
18225;DHT22;9237;48.590;8.854;2023-02-24T15:55:25;9.50;99.90
18225;DHT22;9237;48.590;8.854;2023-02-24T15:57:59;9.40;99.90
18225;DHT22;9237;48.590;8.854;2023-02-24T16:00:26;9.50;99.90
18225;DHT22;9237;48.590;8.854;2023-02-24T16:02:53;9.50;99.90
18225;DHT22;9237;48.590;8.854;2023-02-24T16:05:20;9.50;99.90
18225;DHT22;9237;48.590;8.854;2023-02-24T16:07:49;9.60;99.90
18225;DHT22;9237;48.590;8.854;2023-02-24T16:10:17;9.50;99.90
18225;DHT22;9237;48.590;8.854;2023-02-24T16:12:47;9.50;99.90
18225;DHT22;9237;48.590;8.854;2023-02-24T16:15:19;9.50;99.90
18225;DHT22;9237;48.590;8.854;2023-02-24T16:17:47;9.40;99.90
18225;DHT22;9237;48.590;8.854;2023-02-24T16:20:16;9.30;99.90
18225;DHT22;9237;48.590;8.854;2023-02-24T16:22:43;9.30;99.90
18225;DHT22;9237;48.590;8.854;2023-02-24T16:25:14;9.20;99.90
18225;DHT22;9237;48.590;8.854;2023-02-24T16:27:41;9.10;99.90
18225;DHT22;9237;48.590;8.854;2023-02-24T16:30:14;9.10;99.90
18225;DHT22;9237;48.590;8.854;2023-02-24T16:32:42;9.00;99.90
18225;DHT22;9237;48.590;8.854;2023-02-24T16:35:10;9.00;99.90
18225;DHT22;9237;48.590;8.854;2023-02-24T16:37:38;8.80;99.90